Time;durP1;ratioP1;P1;durP2;ratioP2;P2;SDS_P1;SDS_P2;PMS_P1;PMS_P2;Temp;Humidity;BMP_temperature;BMP_pressure;BME280_temperature;BME280_humidity;BME280_pressure;Samples;Min_cycle;Max_cycle;Signal;HPM_P1;HPM_P2
2022/11/02 00:01:27;;;;;;;35.78;19.33;;;;;;;10.16;100.00;99232.03;5038719;28;20044;-65
2022/11/02 00:03:53;;;;;;;26.58;17.30;;;;;;;10.13;100.00;99242.28;5039102;28;20421;-66
2022/11/02 00:06:18;;;;;;;24.27;16.58;;;;;;;10.12;100.00;99244.00;5015917;28;20041;-67
2022/11/02 00:08:44;;;;;;;25.85;17.08;;;;;;;10.13;100.00;99239.72;5038187;28;20069;-68
2022/11/02 00:11:09;;;;;;;22.58;15.20;;;;;;;10.10;100.00;99249.13;5038685;28;20075;-68
2022/11/02 00:13:35;;;;;;;25.38;15.90;;;;;;;10.02;100.00;99232.97;5020004;28;20041;-68
2022/11/02 00:16:06;;;;;;;23.42;16.42;;;;;;;10.13;100.00;99252.53;5036778;28;20045;-68
2022/11/02 00:18:33;;;;;;;22.42;15.35;;;;;;;10.13;100.00;99258.53;5039244;28;20040;-67
2022/11/02 00:21:00;;;;;;;28.35;17.08;;;;;;;10.04;100.00;99238.94;5038879;28;20133;-67
2022/11/02 00:23:26;;;;;;;27.63;16.35;;;;;;;10.15;100.00;99263.59;5038756;28;20032;-68
2022/11/02 00:25:53;;;;;;;23.15;14.63;;;;;;;10.08;100.00;99245.75;5038309;28;20036;-68
2022/11/02 00:28:19;;;;;;;24.90;16.08;;;;;;;10.20;100.00;99264.47;5038583;28;20041;-68
2022/11/02 00:30:44;;;;;;;24.10;16.48;;;;;;;10.22;100.00;99270.44;5039679;28;20137;-68
2022/11/02 00:33:11;;;;;;;22.35;15.55;;;;;;;10.20;100.00;99264.47;5021039;28;20033;-68
2022/11/02 00:35:37;;;;;;;23.63;16.45;;;;;;;10.25;100.00;99265.28;5022215;28;20053;-68
2022/11/02 00:38:03;;;;;;;25.42;14.85;;;;;;;10.30;100.00;99266.13;5019140;28;20467;-68
2022/11/02 00:40:29;;;;;;;19.38;13.60;;;;;;;10.30;100.00;99263.56;5036197;28;20040;-68
2022/11/02 00:42:55;;;;;;;24.42;14.73;;;;;;;10.37;100.00;99270.31;5038901;28;20906;-68
2022/11/02 00:45:21;;;;;;;24.02;15.88;;;;;;;10.40;100.00;99263.44;5038402;28;20064;-73
2022/11/02 00:47:48;;;;;;;23.55;14.35;;;;;;;10.30;100.00;99240.47;4995339;28;20576;-74
2022/11/02 00:50:15;;;;;;;24.45;14.90;;;;;;;10.42;100.00;99259.19;5021530;28;20041;-75
2022/11/02 00:52:41;;;;;;;24.13;16.88;;;;;;;10.42;100.00;99255.75;5013800;28;20523;-74
2022/11/02 00:55:09;;;;;;;25.77;17.15;;;;;;;10.45;100.00;99260.84;5039120;28;20045;-74
2022/11/02 00:57:40;;;;;;;29.13;17.08;;;;;;;10.33;100.00;99233.63;5020795;28;20036;-75
2022/11/02 01:00:11;;;;;;;26.17;16.52;;;;;;;10.44;100.00;99251.44;5038792;28;20033;-72
2022/11/02 01:02:37;;;;;;;27.50;14.75;;;;;;;10.45;100.00;99248.03;5037903;28;20049;-74
2022/11/02 01:05:04;;;;;;;22.50;15.10;;;;;;;10.34;100.00;99260.09;5036256;28;20052;-74
2022/11/02 01:07:30;;;;;;;22.35;13.75;;;;;;;10.18;100.00;99243.16;5016803;28;20544;-72
2022/11/02 01:09:56;;;;;;;28.42;17.17;;;;;;;10.23;100.00;99256.75;5011462;28;20041;-73
2022/11/02 01:12:21;;;;;;;24.02;15.75;;;;;;;10.25;100.00;99252.47;5038975;28;20052;-74
2022/11/02 01:14:48;;;;;;;25.42;16.50;;;;;;;10.26;100.00;99255.03;5039084;28;20049;-72
2022/11/02 01:17:14;;;;;;;25.90;14.82;;;;;;;10.25;100.00;99250.78;5037485;28;20033;-72
2022/11/02 01:19:40;;;;;;;24.45;15.80;;;;;;;10.27;100.00;99248.22;5039256;28;20041;-73
2022/11/02 01:22:06;;;;;;;24.63;14.77;;;;;;;10.27;100.00;99250.78;5036649;28;20056;-72
2022/11/02 01:24:34;;;;;;;20.73;12.43;;;;;;;10.21;100.00;99230.31;5019942;28;20517;-72
2022/11/02 01:26:59;;;;;;;20.17;11.68;;;;;;;10.33;100.00;99253.25;5037587;28;20396;-74
2022/11/02 01:29:25;;;;;;;15.95;12.20;;;;;;;10.21;100.00;99233.72;5038665;28;20168;-73
2022/11/02 01:31:52;;;;;;;14.98;9.60;;;;;;;10.29;100.00;99233.66;5037902;28;20097;-73
2022/11/02 01:34:20;;;;;;;15.80;10.00;;;;;;;10.48;100.00;99248.84;5038442;28;20500;-71
2022/11/02 01:36:47;;;;;;;16.60;10.15;;;;;;;10.51;100.00;99242.88;5038415;28;20052;-73
2022/11/02 01:39:13;;;;;;;14.25;9.30;;;;;;;10.41;100.00;99241.22;5038304;28;20091;-73
2022/11/02 01:41:39;;;;;;;14.60;10.38;;;;;;;10.46;100.00;99254.88;5039169;28;20033;-71
2022/11/02 01:44:28;;;;;;;15.27;10.32;;;;;;;10.37;100.00;99244.69;5039434;28;20061;-74
2022/11/02 01:46:58;;;;;;;13.30;9.77;;;;;;;10.39;100.00;99254.09;5038856;28;20291;-74
2022/11/02 01:49:24;;;;;;;13.63;9.43;;;;;;;10.37;100.00;99248.09;5011627;28;20044;-73
2022/11/02 01:51:57;;;;;;;16.23;10.05;;;;;;;10.27;100.00;99238.78;5042623;28;20597;-73
2022/11/02 01:54:28;;;;;;;12.98;10.02;;;;;;;10.38;100.00;99248.97;5040976;28;20059;-73
2022/11/02 01:57:02;;;;;;;15.27;10.25;;;;;;;10.23;100.00;99231.97;5022236;28;20051;-73
2022/11/02 01:59:52;;;;;;;19.48;12.05;;;;;;;10.24;100.00;99227.69;5041095;28;20037;-73
2022/11/02 02:02:20;;;;;;;18.75;11.00;;;;;;;10.26;100.00;99226.84;5030343;28;20080;-73
2022/11/02 02:04:51;;;;;;;16.75;10.70;;;;;;;10.35;100.00;99251.56;5026169;28;20450;-71
2022/11/02 02:07:18;;;;;;;15.50;10.95;;;;;;;10.38;100.00;99254.94;5025355;28;20036;-71
2022/11/02 02:09:44;;;;;;;16.38;11.82;;;;;;;10.40;100.00;99244.66;5025196;28;20037;-73
2022/11/02 02:12:12;;;;;;;14.93;10.20;;;;;;;10.42;100.00;99238.66;5024644;28;20051;-74
2022/11/02 02:14:39;;;;;;;14.77;10.35;;;;;;;10.49;100.00;99250.56;5042496;28;20037;-73
2022/11/02 02:17:14;;;;;;;13.65;10.30;;;;;;;10.54;100.00;99242.81;5039922;28;20532;-73
2022/11/02 02:19:50;;;;;;;14.75;9.70;;;;;;;10.54;100.00;99245.38;5040085;28;20079;-72
2022/11/02 02:22:25;;;;;;;15.38;9.98;;;;;;;10.54;100.00;99247.97;5041540;28;20082;-74
2022/11/02 02:25:12;;;;;;;15.20;11.30;;;;;;;10.58;100.00;99257.31;5024523;28;20048;-72
2022/11/02 02:28:06;;;;;;;14.43;7.82;;;;;;;10.64;100.00;99251.28;5037998;28;20067;-73
2022/11/02 02:30:41;;;;;;;10.50;8.48;;;;;;;10.65;100.00;99251.25;5040558;28;20040;-74
2022/11/02 02:33:10;;;;;;;;;;;;;;;10.69;100.00;99252.97;5042452;28;20099;-74
2022/11/02 02:35:42;;;;;;;11.30;7.90;;;;;;;10.71;100.00;99252.94;5042014;28;19920;-73
2022/11/02 02:38:21;;;;;;;9.32;7.07;;;;;;;10.70;100.00;99254.63;5041578;28;20124;-72
2022/11/02 02:40:58;;;;;;;9.27;8.32;;;;;;;10.70;100.00;99254.63;5023060;28;20053;-73
2022/11/02 02:43:29;;;;;;;11.48;9.05;;;;;;;10.58;100.00;99247.06;5039903;28;20692;-74
2022/11/02 02:46:11;;;;;;;13.18;7.80;;;;;;;10.66;100.00;99258.09;5018311;28;20037;-73
2022/11/02 02:48:39;;;;;;;14.63;9.10;;;;;;;10.65;100.00;99263.25;5006897;28;20402;-71
2022/11/02 02:51:10;;;;;;;11.85;8.32;;;;;;;10.66;100.00;99270.91;5041019;28;20051;-71
2022/11/02 02:53:47;;;;;;;9.52;7.90;;;;;;;10.69;100.00;99272.63;5041029;28;20116;-73
2022/11/02 02:56:20;;;;;;;15.27;9.88;;;;;;;10.59;100.00;99251.34;5023224;28;20040;-75
2022/11/02 02:58:59;;;;;;;10.82;7.82;;;;;;;10.71;100.00;99271.72;5037388;28;20628;-75
2022/11/02 03:01:27;;;;;;;13.32;8.32;;;;;;;10.73;100.00;99270.00;5019256;28;20467;-73
2022/11/02 03:03:53;;;;;;;10.20;8.40;;;;;;;10.64;100.00;99252.16;5018021;28;20091;-74
2022/11/02 03:06:26;;;;;;;10.18;7.82;;;;;;;10.63;100.00;99252.16;5001536;28;20038;-73
2022/11/02 03:09:07;;;;;;;15.35;9.07;;;;;;;10.66;100.00;99262.38;5017769;28;20172;-73
2022/11/02 03:11:41;;;;;;;9.02;7.72;;;;;;;10.79;100.00;99271.66;5020921;28;20034;-70
2022/11/02 03:14:06;;;;;;;13.02;8.98;;;;;;;10.80;100.00;99281.06;5018110;28;20478;-69
2022/11/02 03:16:58;;;;;;;21.67;14.55;;;;;;;10.80;100.00;99281.91;5003578;28;20547;-69
2022/11/02 03:19:45;;;;;;;18.42;12.95;;;;;;;10.76;100.00;99267.41;4999481;28;20044;-69
2022/11/02 03:22:21;;;;;;;17.00;12.63;;;;;;;10.83;100.00;99281.00;5017745;28;20187;-69
2022/11/02 03:25:09;;;;;;;14.10;10.23;;;;;;;10.84;100.00;99295.53;5021547;28;20400;-69
2022/11/02 03:27:55;;;;;;;16.85;10.85;;;;;;;10.83;100.00;99279.31;5020102;28;20081;-69
2022/11/02 03:30:25;;;;;;;14.05;10.90;;;;;;;10.83;100.00;99287.00;5019623;28;20489;-70
2022/11/02 03:33:01;;;;;;;10.85;8.98;;;;;;;10.71;100.00;99271.72;5018946;28;20045;-69
2022/11/02 03:35:51;;;;;;;21.80;11.68;;;;;;;10.81;100.00;99291.31;5020188;28;20088;-70
2022/11/02 03:38:28;;;;;;;13.48;9.95;;;;;;;10.81;100.00;99293.88;4993580;28;20044;-70
2022/11/02 03:40:56;;;;;;;13.18;9.77;;;;;;;10.82;100.00;99287.84;5000116;28;20900;-70
2022/11/02 03:43:23;;;;;;;10.73;8.10;;;;;;;10.84;100.00;99288.72;5019740;28;20264;-70
2022/11/02 03:45:55;;;;;;;13.00;8.68;;;;;;;10.81;100.00;99281.06;4994910;28;20049;-71
2022/11/02 03:48:28;;;;;;;13.73;9.45;;;;;;;10.87;100.00;99285.25;5003422;28;20044;-70
2022/11/02 03:50:59;;;;;;;11.48;7.18;;;;;;;10.91;100.00;99294.63;5020549;28;20045;-71
2022/11/02 03:53:51;;;;;;;11.85;8.45;;;;;;;10.88;100.00;99292.94;5020291;28;20072;-70
2022/11/02 03:56:27;;;;;;;12.02;7.93;;;;;;;10.95;100.00;99304.84;5020667;28;20132;-71
2022/11/02 03:58:55;;;;;;;8.73;7.07;;;;;;;10.94;100.00;99299.75;5002516;28;20563;-71
2022/11/02 04:01:21;;;;;;;9.07;6.95;;;;;;;10.99;100.00;99301.38;5019066;28;20045;-72
2022/11/02 04:03:47;;;;;;;9.25;7.25;;;;;;;11.10;100.00;99278.19;5003241;28;20053;-70
2022/11/02 04:06:14;;;;;;;8.63;6.82;;;;;;;11.07;100.00;99280.78;5019059;28;20048;-70
2022/11/02 04:08:43;;;;;;;15.65;7.80;;;;;;;11.08;100.00;99285.03;4993307;28;20048;-71
2022/11/02 04:16:45;;;;;;;11.23;7.15;;;;;;;11.24;100.00;99303.69;5017746;28;20050;-71
2022/11/02 04:19:28;;;;;;;17.38;11.65;;;;;;;11.24;100.00;99289.16;4999830;28;20091;-69
2022/11/02 04:27:33;;;;;;;17.05;11.23;;;;;;;11.22;100.00;99288.31;5002994;28;20488;-68
2022/11/02 04:29:59;;;;;;;28.30;15.15;;;;;;;11.29;100.00;99299.34;5004012;28;20107;-67
2022/11/02 04:35:14;;;;;;;32.50;18.63;;;;;;;11.37;100.00;99297.56;5004935;28;20049;-63
2022/11/02 04:40:31;;;;;;;15.55;10.30;;;;;;;11.42;100.00;99288.94;5018417;28;20049;-65
2022/11/02 04:42:57;;;;;;;18.63;12.27;;;;;;;11.38;100.00;99301.81;5019333;28;20037;-64
2022/11/02 04:45:23;;;;;;;19.13;12.82;;;;;;;11.45;100.00;99308.59;5001190;28;20772;-64
2022/11/02 04:47:48;;;;;;;12.82;9.57;;;;;;;11.40;100.00;99308.66;5004215;28;20221;-64
2022/11/02 04:50:15;;;;;;;20.60;10.95;;;;;;;11.37;100.00;99312.97;4980879;28;20250;-64
2022/11/02 04:52:42;;;;;;;13.68;10.57;;;;;;;11.35;100.00;99309.56;5000154;28;20517;-65
2022/11/02 04:55:14;;;;;;;19.52;11.95;;;;;;;11.42;100.00;99309.47;5002067;28;20057;-65
2022/11/02 04:57:44;;;;;;;15.73;11.63;;;;;;;11.44;100.00;99317.16;5016961;28;20037;-65
2022/11/02 05:00:10;;;;;;;12.43;10.82;;;;;;;11.49;100.00;99319.69;5017050;28;20042;-65
2022/11/02 05:02:36;;;;;;;12.82;10.48;;;;;;;11.52;100.00;99329.91;5003137;28;20127;-65
2022/11/02 05:05:02;;;;;;;15.32;12.68;;;;;;;11.45;100.00;99326.56;5023095;28;20041;-71
2022/11/02 05:07:27;;;;;;;15.45;9.65;;;;;;;11.38;100.00;99320.63;5019657;28;20037;-71
2022/11/02 05:09:53;;;;;;;14.40;10.05;;;;;;;11.38;100.00;99324.91;5023161;28;20478;-71
2022/11/02 05:12:19;;;;;;;14.77;11.27;;;;;;;11.36;100.00;99322.38;5039533;28;20037;-70
2022/11/02 05:14:45;;;;;;;14.05;10.90;;;;;;;11.35;100.00;99324.97;5021243;28;20103;-72
2022/11/02 05:17:12;;;;;;;14.85;10.63;;;;;;;11.21;100.00;99308.84;5039338;28;20049;-71
2022/11/02 05:19:38;;;;;;;13.35;10.52;;;;;;;11.28;100.00;99331.03;5037496;28;20129;-71
2022/11/02 05:22:04;;;;;;;15.93;11.00;;;;;;;11.26;100.00;99330.19;5020818;28;20041;-71
2022/11/02 05:24:30;;;;;;;16.30;9.90;;;;;;;11.15;100.00;99311.50;5037969;28;20037;-71
2022/11/02 05:26:56;;;;;;;13.23;9.65;;;;;;;11.22;100.00;99337.06;5023374;28;20044;-71
2022/11/02 05:29:25;;;;;;;12.20;9.40;;;;;;;11.18;100.00;99329.41;5025073;28;20052;-71
2022/11/02 05:31:52;;;;;;;14.73;10.77;;;;;;;11.04;100.00;99315.88;5040932;28;20102;-71
2022/11/02 05:34:18;;;;;;;15.38;9.60;;;;;;;11.14;100.00;99335.44;5024796;28;20097;-67
2022/11/02 05:36:46;;;;;;;15.07;10.50;;;;;;;11.12;100.00;99337.19;4996224;28;20033;-67
2022/11/02 05:39:13;;;;;;;12.75;10.63;;;;;;;10.95;100.00;99319.38;5015384;28;20116;-66
2022/11/02 05:41:39;;;;;;;17.48;11.27;;;;;;;11.03;100.00;99339.84;5038778;28;20051;-68
2022/11/02 05:44:05;;;;;;;14.02;11.18;;;;;;;11.01;100.00;99337.28;5041317;28;20113;-67
2022/11/02 05:46:31;;;;;;;15.60;10.75;;;;;;;10.99;100.00;99344.13;5042176;28;20041;-66
2022/11/02 05:48:56;;;;;;;18.25;10.88;;;;;;;10.95;100.00;99330.50;5027883;28;20103;-67
2022/11/02 05:51:22;;;;;;;15.13;11.52;;;;;;;10.86;100.00;99335.69;5025126;28;20072;-66
2022/11/02 05:53:47;;;;;;;21.45;11.82;;;;;;;10.69;100.00;99323.91;5041081;28;20044;-67
2022/11/02 05:56:13;;;;;;;22.45;13.55;;;;;;;10.76;100.00;99338.38;5042259;28;20098;-66
2022/11/02 05:58:39;;;;;;;19.50;14.13;;;;;;;10.80;100.00;99348.59;5028112;28;20114;-68
2022/11/02 06:01:07;;;;;;;18.50;13.07;;;;;;;10.79;100.00;99344.31;5041366;28;20037;-67
2022/11/02 06:03:33;;;;;;;17.02;11.93;;;;;;;10.70;100.00;99333.28;5016341;28;20029;-66
2022/11/02 06:06:04;;;;;;;16.48;12.05;;;;;;;10.75;100.00;99355.47;4999789;28;20033;-66
2022/11/02 06:08:32;;;;;;;16.83;12.32;;;;;;;10.71;100.00;99352.94;5015996;28;20051;-66
2022/11/02 06:11:02;;;;;;;21.63;13.05;;;;;;;10.60;100.00;99341.94;5015733;28;20037;-67
2022/11/02 06:13:27;;;;;;;18.70;13.07;;;;;;;10.56;100.00;99342.81;5014842;28;20523;-66
2022/11/02 06:15:53;;;;;;;18.45;12.88;;;;;;;10.62;100.00;99361.56;5015988;28;20069;-66
2022/11/02 06:18:19;;;;;;;19.20;13.32;;;;;;;10.59;100.00;99363.28;5016074;28;20251;-68
2022/11/02 06:20:44;;;;;;;19.92;13.20;;;;;;;10.55;100.00;99365.03;5017265;28;20264;-66
2022/11/02 06:23:13;;;;;;;22.23;15.30;;;;;;;10.53;100.00;99366.75;5014941;28;20552;-66
2022/11/02 06:25:38;;;;;;;21.60;14.20;;;;;;;10.52;100.00;99371.00;5015855;28;20524;-66
2022/11/02 06:28:04;;;;;;;21.75;14.38;;;;;;;10.50;100.00;99379.59;4995831;28;20073;-66
2022/11/02 06:30:30;;;;;;;19.20;14.63;;;;;;;10.43;100.00;99377.94;5013512;28;20076;-61
2022/11/02 06:32:56;;;;;;;23.65;15.40;;;;;;;10.37;100.00;99372.84;5011872;28;20076;-62
2022/11/02 06:35:22;;;;;;;19.45;15.43;;;;;;;10.24;100.00;99354.13;5014003;28;20046;-61
2022/11/02 06:37:48;;;;;;;27.02;17.45;;;;;;;10.54;100.00;99387.25;5015105;28;20074;-61
2022/11/02 06:40:14;;;;;;;30.65;20.67;;;;;;;10.60;100.00;99396.63;5013525;28;20918;-59
2022/11/02 06:42:39;;;;;;;33.05;20.98;;;;;;;10.67;100.00;99387.16;5017762;28;20149;-61
2022/11/02 06:45:06;;;;;;;36.33;19.85;;;;;;;10.73;100.00;99384.56;5015639;28;20659;-62
2022/11/02 06:47:34;;;;;;;28.85;19.25;;;;;;;10.72;100.00;99391.41;5015071;28;20034;-62
2022/11/02 06:50:01;;;;;;;30.58;15.70;;;;;;;10.60;100.00;99380.38;5012214;28;20100;-63
2022/11/02 06:52:27;;;;;;;28.73;18.17;;;;;;;10.69;100.00;99394.00;5014459;28;20033;-61
2022/11/02 06:54:52;;;;;;;28.83;16.35;;;;;;;10.63;100.00;99385.47;5014692;28;20493;-62
2022/11/02 06:57:18;;;;;;;27.85;15.80;;;;;;;10.63;100.00;99383.78;5015960;28;20069;-61
2022/11/02 06:59:44;;;;;;;30.00;15.35;;;;;;;10.68;100.00;99379.47;5015506;28;20048;-61
2022/11/02 07:02:10;;;;;;;24.27;16.55;;;;;;;10.89;100.00;99389.56;5002778;28;20045;-62
2022/11/02 07:04:35;;;;;;;26.15;18.17;;;;;;;11.09;100.00;99407.34;5014428;28;20463;-61
2022/11/02 07:07:01;;;;;;;21.45;15.63;;;;;;;11.17;100.00;99395.28;5014541;28;20285;-63
2022/11/02 07:09:26;;;;;;;18.35;13.20;;;;;;;11.44;100.00;99413.00;5031850;28;20044;-60
2022/11/02 07:11:52;;;;;;;17.15;12.55;;;;;;;11.48;100.00;99395.00;5021202;28;20063;-61
2022/11/02 07:14:18;;;;;;;16.17;10.70;;;;;;;11.68;100.00;99393.06;5038254;28;20179;-61
2022/11/02 07:16:44;;;;;;;14.93;10.32;;;;;;;11.99;100.00;99412.44;5036351;28;20064;-61
2022/11/02 07:19:09;;;;;;;14.15;10.38;;;;;;;12.12;100.00;99410.56;5038004;28;20560;-60
2022/11/02 07:21:35;;;;;;;12.88;10.18;;;;;;;12.20;100.00;99406.16;5039560;28;20044;-60
2022/11/02 07:24:01;;;;;;;16.50;11.63;;;;;;;12.33;100.00;99406.00;5035980;28;20049;-60
2022/11/02 07:26:27;;;;;;;13.20;9.98;;;;;;;12.31;100.00;99391.44;5034271;28;20117;-59
2022/11/02 07:28:53;;;;;;;17.70;11.23;;;;;;;12.63;100.00;99403.84;5040433;28;20464;-62
2022/11/02 07:31:18;;;;;;;16.88;11.18;;;;;;;12.77;100.00;99401.94;5023390;28;20097;-61
2022/11/02 07:33:44;;;;;;;14.30;10.13;;;;;;;12.96;100.00;99405.03;5041353;28;20477;-60
2022/11/02 07:36:10;;;;;;;16.02;9.93;;;;;;;13.15;100.00;99409.06;5040601;28;20101;-62
2022/11/02 07:38:36;;;;;;;19.50;11.38;;;;;;;13.28;100.00;99403.66;5021508;28;20580;-62
2022/11/02 07:41:01;;;;;;;12.63;9.38;;;;;;;13.32;100.00;99389.03;5020571;28;20045;-62
2022/11/02 07:43:27;;;;;;;12.57;9.98;;;;;;;13.33;100.00;99388.13;5039566;28;20041;-61
2022/11/02 07:46:01;;;;;;;16.65;11.13;;;;;;;13.46;100.00;99384.44;5039498;28;20041;-60
2022/11/02 07:48:27;;;;;;;19.83;11.82;;;;;;;13.58;100.00;99398.81;5038290;28;20041;-61
2022/11/02 07:50:52;;;;;;;16.45;11.40;;;;;;;13.83;100.00;99389.78;5040263;28;20037;-61
2022/11/02 07:53:18;;;;;;;14.00;10.23;;;;;;;13.95;100.00;99392.09;5039475;28;20478;-61
2022/11/02 07:55:44;;;;;;;14.45;10.95;;;;;;;14.16;100.00;99383.06;5037819;28;20087;-61
2022/11/02 07:58:12;;;;;;;17.27;12.48;;;;;;;14.32;100.00;99380.97;5017826;28;20527;-61
2022/11/02 08:00:42;;;;;;;17.75;9.98;;;;;;;14.32;100.00;99379.25;5038444;28;20160;-61
2022/11/02 08:03:09;;;;;;;15.10;9.52;;;;;;;14.53;100.00;99383.97;5038632;28;20138;-61
2022/11/02 08:05:37;;;;;;;15.27;9.95;;;;;;;14.70;100.00;99383.56;5021298;28;20043;-61
2022/11/02 08:08:05;;;;;;;14.18;11.05;;;;;;;14.73;100.00;99365.44;5040160;28;20036;-61
2022/11/02 08:10:33;;;;;;;12.57;9.25;;;;;;;14.80;100.00;99371.31;5040072;28;20164;-60
2022/11/02 08:12:59;;;;;;;12.18;9.20;;;;;;;14.80;100.00;99381.63;5035640;28;20120;-63
2022/11/02 08:15:25;;;;;;;10.50;8.27;;;;;;;14.65;100.00;99367.34;5012563;28;20098;-61
2022/11/02 08:18:00;;;;;;;10.93;8.52;;;;;;;14.67;100.00;99382.81;5038000;28;20443;-62
2022/11/02 08:20:25;;;;;;;9.98;8.20;;;;;;;14.51;100.00;99375.41;5039667;28;20129;-61
2022/11/02 08:22:51;;;;;;;11.65;9.23;;;;;;;14.57;100.00;99383.00;5038292;28;20033;-60
2022/11/02 08:25:16;;;;;;;13.00;7.72;;;;;;;14.77;100.00;99381.69;5039132;28;20083;-61
2022/11/02 08:27:42;;;;;;;11.70;8.02;;;;;;;15.07;100.00;99381.78;5038562;28;20463;-61
2022/11/02 08:30:08;;;;;;;12.73;8.43;;;;;;;15.52;100.00;99379.81;5035857;28;20044;-60
2022/11/02 08:32:34;;;;;;;13.25;7.18;;;;;;;15.92;100.00;99378.66;5037517;28;20048;-62
2022/11/02 08:34:59;;;;;;;7.13;6.18;;;;;;;16.11;100.00;99371.25;5035297;28;20558;-60
2022/11/02 08:37:25;;;;;;;8.10;5.50;;;;;;;16.20;100.00;99374.41;5036944;28;20063;-60
2022/11/02 08:39:50;;;;;;;8.55;5.03;;;;;;;16.26;100.00;99371.63;5038492;28;20060;-61
2022/11/02 08:42:16;;;;;;;7.38;4.45;;;;;;;16.10;100.00;99378.16;5019429;28;20139;-60
2022/11/02 08:44:41;;;;;;;8.57;5.43;;;;;;;16.05;100.00;99354.16;5032862;28;20048;-60
2022/11/02 08:47:07;;;;;;;9.63;5.18;;;;;;;16.38;100.00;99363.47;5036893;28;20538;-60
2022/11/02 08:49:33;;;;;;;9.63;6.20;;;;;;;16.36;100.00;99352.34;5036104;28;20152;-60
2022/11/02 08:51:59;;;;;;;5.95;3.38;;;;;;;16.97;100.00;99362.53;5037175;28;20030;-60
2022/11/02 08:54:24;;;;;;;4.03;2.90;;;;;;;17.23;100.00;99352.97;5034539;28;20151;-60
2022/11/02 08:56:50;;;;;;;6.82;3.25;;;;;;;17.58;100.00;99349.16;5036684;28;20087;-60
2022/11/02 08:59:15;;;;;;;5.70;2.10;;;;;;;17.68;100.00;99332.38;5018730;28;20045;-61
2022/11/02 09:01:41;;;;;;;3.53;1.88;;;;;;;17.91;100.00;99339.31;5020920;28;20113;-60
2022/11/02 09:04:06;;;;;;;2.50;1.88;;;;;;;17.97;100.00;99333.03;5040791;28;20056;-59
2022/11/02 09:06:33;;;;;;;4.38;1.98;;;;;;;18.05;100.00;99325.81;5039344;28;20460;-62
2022/11/02 09:08:58;;;;;;;4.13;3.25;;;;;;;18.16;100.00;99324.50;5040887;28;20064;-62
2022/11/02 09:11:24;;;;;;;10.65;2.22;;;;;;;18.32;100.00;99335.16;5039606;28;20803;-62
2022/11/02 09:13:50;;;;;;;3.03;2.70;;;;;;;18.39;100.00;99335.75;5023201;28;20048;-62
2022/11/02 09:16:16;;;;;;;4.28;1.90;;;;;;;18.42;100.00;99333.00;5040001;28;20179;-60
2022/11/02 09:18:41;;;;;;;1.85;1.75;;;;;;;18.31;100.00;99330.84;5039632;28;20037;-59
2022/11/02 09:21:07;;;;;;;3.03;1.83;;;;;;;18.50;100.00;99334.41;5041093;28;20572;-60
2022/11/02 09:23:33;;;;;;;5.38;2.25;;;;;;;18.61;100.00;99328.81;5039198;28;20033;-60
2022/11/02 09:25:59;;;;;;;5.22;1.80;;;;;;;18.58;100.00;99334.16;5041684;28;20183;-60
2022/11/02 09:28:25;;;;;;;2.67;1.70;;;;;;;18.64;100.00;99332.13;5043682;28;20047;-60
2022/11/02 09:30:51;;;;;;;2.70;1.58;;;;;;;18.66;100.00;99327.75;5042017;28;20044;-60
2022/11/02 09:33:16;;;;;;;2.30;2.10;;;;;;;18.72;100.00;99303.25;5043345;28;20141;-60
2022/11/02 09:35:44;;;;;;;3.72;2.47;;;;;;;18.98;100.00;99329.00;5022111;28;20049;-60
2022/11/02 09:38:10;;;;;;;2.90;2.00;;;;;;;19.13;100.00;99327.53;5039174;28;20037;-61
2022/11/02 09:40:57;;;;;;;3.50;2.50;;;;;;;19.18;100.00;99312.53;5039963;28;20532;-61
2022/11/02 09:43:49;;;;;;;2.90;1.65;;;;;;;19.42;100.00;99326.25;5028598;28;20365;-61
2022/11/02 09:46:20;;;;;;;4.63;2.45;;;;;;;19.21;100.00;99311.59;5032540;28;20057;-60
2022/11/02 09:48:59;;;;;;;5.32;2.22;;;;;;;19.27;100.00;99312.16;5041079;28;20056;-63
2022/11/02 09:51:53;;;;;;;6.47;1.83;;;;;;;19.33;100.00;99326.66;5039361;28;20077;-65
2022/11/02 09:54:29;;;;;;;4.18;2.20;;;;;;;19.38;100.00;99316.91;5032553;28;20921;-62
2022/11/02 09:57:04;;;;;;;2.70;1.70;;;;;;;19.66;100.00;99330.41;5041779;28;20449;-62
2022/11/02 09:59:29;;;;;;;3.22;2.92;;;;;;;19.49;100.00;99325.09;5042241;28;20051;-62
2022/11/02 10:02:22;;;;;;;4.15;3.50;;;;;;;19.54;100.00;99329.19;5041401;28;20460;-60
2022/11/02 10:05:03;;;;;;;7.47;4.18;;;;;;;19.46;100.00;99320.03;5042059;28;20045;-62
2022/11/02 10:08:03;;;;;;;5.38;3.15;;;;;;;19.62;100.00;99323.66;5039434;28;20041;-61
2022/11/02 10:10:40;;;;;;;6.05;3.05;;;;;;;19.57;100.00;99323.00;5037966;28;20045;-61
2022/11/02 10:13:30;;;;;;;6.22;2.80;;;;;;;19.46;100.00;99327.84;5042459;28;20155;-62
2022/11/02 10:16:04;;;;;;;2.17;1.88;;;;;;;19.32;100.00;99323.22;5040405;28;20563;-62
2022/11/02 10:18:30;;;;;;;1.77;1.67;;;;;;;19.21;98.19;99327.19;5037917;28;20036;-62
2022/11/02 10:21:07;;;;;;;1.92;1.83;;;;;;;18.99;98.91;99327.25;5019605;28;20053;-60
2022/11/02 10:23:37;;;;;;;6.10;2.38;;;;;;;18.74;98.48;99308.38;5038071;28;20064;-61
2022/11/02 10:26:02;;;;;;;3.90;1.75;;;;;;;18.69;98.94;99313.78;5020086;28;20484;-62
2022/11/02 10:28:32;;;;;;;3.78;2.50;;;;;;;18.63;97.22;99319.19;5053550;28;69208;-61
2022/11/02 10:31:00;;;;;;;2.33;1.55;;;;;;;18.51;96.21;99320.50;5056427;28;20135;-62
2022/11/02 10:33:27;;;;;;;2.88;1.88;;;;;;;18.45;97.37;99319.94;5059572;28;20028;-63
2022/11/02 10:35:58;;;;;;;1.98;1.88;;;;;;;18.42;94.37;99314.84;5058562;28;20028;-63
2022/11/02 10:38:53;;;;;;;1.63;1.50;;;;;;;18.46;94.41;99313.84;5061515;28;20047;-63
2022/11/02 10:41:47;;;;;;;4.40;1.77;;;;;;;18.52;94.29;99310.97;5018461;28;20059;-62
2022/11/02 10:44:51;;;;;;;1.47;1.37;;;;;;;18.81;93.24;99313.25;5056891;28;20060;-62
2022/11/02 10:47:21;;;;;;;3.72;1.30;;;;;;;18.93;90.59;99311.91;5059389;28;20040;-61
2022/11/02 10:50:03;;;;;;;1.75;1.50;;;;;;;18.93;88.31;99294.56;5058105;28;20051;-62
2022/11/02 10:52:38;;;;;;;4.78;1.60;;;;;;;19.04;90.81;99310.56;5055970;28;20119;-61
2022/11/02 10:55:08;;;;;;;5.50;1.25;;;;;;;19.00;89.57;99322.00;5057288;28;20094;-65
2022/11/02 10:57:37;;;;;;;1.40;1.30;;;;;;;18.85;88.98;99306.19;5057750;28;20032;-65
2022/11/02 11:00:23;;;;;;;2.97;1.50;;;;;;;18.89;88.79;99312.94;5060372;28;20588;-63
2022/11/02 11:03:06;;;;;;;1.52;1.33;;;;;;;18.89;91.84;99311.19;5056623;28;20445;-65
2022/11/02 11:05:35;;;;;;;2.55;1.92;;;;;;;18.76;91.59;99296.16;5057648;28;20047;-65
2022/11/02 11:08:01;;;;;;;1.95;1.60;;;;;;;18.97;90.76;99318.66;5059903;28;20039;-66
2022/11/02 11:10:30;;;;;;;2.35;1.40;;;;;;;19.10;90.47;99314.63;5058255;28;20060;-62
2022/11/02 11:12:56;;;;;;;7.93;1.67;;;;;;;19.00;88.36;99316.78;5059096;28;20137;-62
2022/11/02 11:15:32;;;;;;;2.30;1.70;;;;;;;19.15;87.65;99313.53;5059378;28;20319;-62
2022/11/02 11:17:57;;;;;;;1.65;1.50;;;;;;;19.00;88.93;99303.81;5060422;28;20129;-62
2022/11/02 11:20:35;;;;;;;3.25;2.95;;;;;;;18.93;90.00;99315.34;5037377;28;20044;-61
2022/11/02 11:23:33;;;;;;;2.47;2.33;;;;;;;18.77;92.99;99313.44;5059150;28;20037;-62
2022/11/02 11:26:23;;;;;;;3.88;1.58;;;;;;;18.49;93.69;99301.56;4996980;28;20053;-62
2022/11/02 11:28:54;;;;;;;4.03;1.63;;;;;;;18.56;94.48;99305.63;4995687;28;20050;-62
2022/11/02 11:31:20;;;;;;;2.35;1.90;;;;;;;18.51;95.10;99310.13;4997793;28;20050;-62
2022/11/02 11:33:57;;;;;;;2.97;1.58;;;;;;;18.49;95.63;99311.09;4993662;28;20657;-62
2022/11/02 11:36:34;;;;;;;3.85;2.00;;;;;;;18.55;94.69;99309.13;4996996;28;20053;-61
2022/11/02 11:39:25;;;;;;;1.98;1.40;;;;;;;18.53;95.45;99316.16;4996799;28;20065;-62
2022/11/02 11:41:51;;;;;;;3.53;1.80;;;;;;;18.52;96.01;99290.19;4992736;28;20050;-61
2022/11/02 11:44:16;;;;;;;3.50;1.70;;;;;;;18.79;93.66;99315.09;4996638;28;20523;-61
2022/11/02 11:46:46;;;;;;;2.22;1.70;;;;;;;18.92;92.11;99305.88;4997175;28;20279;-61